createdAt,value
2022-10-10T00:01:53.711Z,33.00
2022-10-10T00:05:21.998Z,30.20
2022-10-10T00:08:49.500Z,34.00
2022-10-10T00:12:21.499Z,31.70
2022-10-10T00:15:51.537Z,27.30
2022-10-10T00:19:20.600Z,26.60
2022-10-10T00:22:48.313Z,27.90
2022-10-10T00:26:19.218Z,35.70
2022-10-10T00:29:45.952Z,30.30
2022-10-10T00:33:14.785Z,26.70
2022-10-10T00:36:43.092Z,28.00
2022-10-10T00:40:13.390Z,26.50
2022-10-10T00:43:40.717Z,32.90
2022-10-10T00:47:07.715Z,30.70
2022-10-10T00:50:37.661Z,30.20
2022-10-10T00:54:07.590Z,31.30
2022-10-10T00:57:34.842Z,25.60
2022-10-10T01:01:01.605Z,25.30
2022-10-10T01:04:43.096Z,24.10
2022-10-10T01:11:53.505Z,29.10
2022-10-10T01:15:29.221Z,27.70
2022-10-10T01:19:06.727Z,25.20
2022-10-10T01:22:45.252Z,23.30
2022-10-10T01:26:36.525Z,25.00
2022-10-10T01:30:07.015Z,23.10
2022-10-10T01:33:40.215Z,22.10
2022-10-10T01:37:16.371Z,24.10
2022-10-10T01:40:52.640Z,26.20
2022-10-10T01:44:20.714Z,24.00
2022-10-10T01:47:47.610Z,21.80
2022-10-10T01:51:30.388Z,23.60
2022-10-10T01:55:09.587Z,23.80
2022-10-10T01:58:54.869Z,20.30
2022-10-10T02:02:32.674Z,25.80
2022-10-10T02:06:05.718Z,26.70
2022-10-10T02:09:40.036Z,23.50
2022-10-10T02:13:11.651Z,33.80
2022-10-10T02:16:43.774Z,22.20
2022-10-10T02:20:15.082Z,23.90
2022-10-10T02:23:44.900Z,21.30
2022-10-10T02:27:23.011Z,29.70
2022-10-10T02:30:53.933Z,28.60
2022-10-10T02:34:23.410Z,21.80
2022-10-10T02:37:53.471Z,29.40
2022-10-10T02:41:22.389Z,30.00
2022-10-10T02:44:50.163Z,25.00
2022-10-10T02:48:17.169Z,29.00
2022-10-10T02:51:44.142Z,25.50
2022-10-10T02:55:12.520Z,26.80
2022-10-10T02:58:38.941Z,29.00
2022-10-10T03:02:06.861Z,27.40
2022-10-10T03:05:34.015Z,25.80
2022-10-10T03:09:01.039Z,23.50
2022-10-10T03:12:27.583Z,29.90
2022-10-10T03:15:54.785Z,24.40
2022-10-10T03:19:21.710Z,27.20
2022-10-10T03:22:49.563Z,21.80
2022-10-10T03:26:16.984Z,24.80
2022-10-10T03:29:43.879Z,22.70
2022-10-10T03:33:11.554Z,25.00
2022-10-10T03:36:38.457Z,21.40
2022-10-10T03:40:05.498Z,26.40
2022-10-10T03:43:31.838Z,24.10
2022-10-10T03:46:58.958Z,24.60
2022-10-10T03:50:25.600Z,21.90
2022-10-10T03:53:52.709Z,23.00
2022-10-10T03:57:19.332Z,25.40
2022-10-10T04:00:46.094Z,25.00
2022-10-10T04:04:12.631Z,25.50
2022-10-10T04:07:39.085Z,24.80
2022-10-10T04:11:05.925Z,30.00
2022-10-10T04:14:32.783Z,28.60
2022-10-10T04:17:59.991Z,22.40
2022-10-10T04:21:28.787Z,24.50
2022-10-10T04:24:56.337Z,23.80
2022-10-10T04:28:23.036Z,22.40
2022-10-10T04:31:49.656Z,25.40
2022-10-10T04:35:16.816Z,23.00
2022-10-10T04:38:44.096Z,21.00
2022-10-10T04:42:10.903Z,23.60
2022-10-10T04:45:37.914Z,27.80
2022-10-10T04:49:05.309Z,26.80
2022-10-10T04:52:32.051Z,25.20
2022-10-10T04:55:59.108Z,25.40
2022-10-10T04:59:26.416Z,24.90
2022-10-10T05:02:55.468Z,26.90
2022-10-10T05:06:22.240Z,26.00
2022-10-10T05:09:52.004Z,25.20
2022-10-10T05:13:19.396Z,26.50
2022-10-10T05:16:45.959Z,27.30
2022-10-10T05:20:17.630Z,28.80
2022-10-10T05:23:44.883Z,27.30
2022-10-10T05:27:11.973Z,25.70
2022-10-10T05:30:38.511Z,23.20
2022-10-10T05:34:05.163Z,23.90
2022-10-10T05:37:32.782Z,20.90
2022-10-10T05:40:59.359Z,22.50
2022-10-10T05:44:26.293Z,23.90
2022-10-10T05:47:56.082Z,25.80
2022-10-10T05:51:24.788Z,27.80
2022-10-10T05:54:52.394Z,22.80
2022-10-10T05:58:21.079Z,23.20
2022-10-10T06:01:48.975Z,26.00
2022-10-10T06:05:16.640Z,26.20
2022-10-10T06:08:43.332Z,23.80
2022-10-10T06:12:10.576Z,25.90
2022-10-10T06:15:37.931Z,34.80
2022-10-10T06:19:05.013Z,29.60
2022-10-10T06:22:32.689Z,27.90
2022-10-10T06:26:00.258Z,28.10
2022-10-10T06:29:27.336Z,25.10
2022-10-10T06:32:56.798Z,30.40
2022-10-10T06:36:23.808Z,25.50
2022-10-10T06:39:50.477Z,27.80
2022-10-10T06:43:19.909Z,27.00
2022-10-10T06:46:47.909Z,29.00
2022-10-10T06:50:14.632Z,27.90
2022-10-10T06:53:44.380Z,23.60
2022-10-10T06:57:11.731Z,40.70
2022-10-10T07:00:38.409Z,35.60
2022-10-10T07:04:06.330Z,28.30
2022-10-10T07:07:33.306Z,26.30
2022-10-10T07:10:59.945Z,30.60
2022-10-10T07:14:26.334Z,26.50
2022-10-10T07:18:00.464Z,27.40
2022-10-10T07:21:27.991Z,29.10
2022-10-10T07:24:55.080Z,32.50
2022-10-10T07:28:22.173Z,30.40
2022-10-10T07:31:49.212Z,27.30
2022-10-10T07:35:15.738Z,28.00
2022-10-10T07:38:42.742Z,24.70
2022-10-10T07:42:10.702Z,23.70
2022-10-10T07:45:39.862Z,24.00
2022-10-10T07:49:06.937Z,25.70
2022-10-10T07:52:34.236Z,22.80
2022-10-10T07:56:00.788Z,20.10
2022-10-10T07:59:28.117Z,30.90
2022-10-10T08:02:55.246Z,24.60
2022-10-10T08:06:22.673Z,21.10
2022-10-10T08:09:49.341Z,20.20
2022-10-10T08:13:15.992Z,19.80
2022-10-10T08:16:42.886Z,24.70
2022-10-10T08:20:10.619Z,21.30
2022-10-10T08:23:38.551Z,20.00
2022-10-10T08:27:08.513Z,24.10
2022-10-10T08:30:35.625Z,23.20
2022-10-10T08:34:05.080Z,19.40
2022-10-10T08:37:37.131Z,18.70
2022-10-10T08:41:09.014Z,16.90
2022-10-10T08:44:43.890Z,18.80
2022-10-10T08:48:16.473Z,18.40
2022-10-10T08:51:51.686Z,19.80
2022-10-10T08:55:24.609Z,15.90
2022-10-10T08:59:01.491Z,18.00
2022-10-10T09:02:56.271Z,17.60
2022-10-10T09:06:39.961Z,14.20
2022-10-10T09:10:20.711Z,13.60
2022-10-10T09:13:54.634Z,11.50
2022-10-10T09:17:39.643Z,11.80
2022-10-10T09:21:16.658Z,13.40
2022-10-10T09:24:50.158Z,15.30
2022-10-10T09:28:21.882Z,13.80
2022-10-10T09:31:53.956Z,20.60
2022-10-10T09:35:24.693Z,14.30
2022-10-10T09:38:55.535Z,14.90
2022-10-10T09:42:30.147Z,17.10
2022-10-10T09:45:58.932Z,18.20
2022-10-10T09:49:27.237Z,10.60
2022-10-10T09:52:55.419Z,17.90
2022-10-10T09:56:25.025Z,14.60
2022-10-10T09:59:52.133Z,12.90
2022-10-10T10:03:23.731Z,11.80
2022-10-10T10:06:52.666Z,10.70
2022-10-10T10:10:24.666Z,16.50
2022-10-10T10:13:58.128Z,11.10
2022-10-10T10:17:26.769Z,16.50
2022-10-10T10:20:55.303Z,11.40
2022-10-10T10:24:31.160Z,16.00
2022-10-10T10:28:18.350Z,14.80
2022-10-10T10:31:59.827Z,10.60
2022-10-10T10:35:33.033Z,13.50
2022-10-10T10:39:08.348Z,11.50
2022-10-10T10:42:56.334Z,10.40
2022-10-10T10:46:35.714Z,11.80
2022-10-10T10:50:28.842Z,11.10
2022-10-10T10:54:03.584Z,10.10
2022-10-10T10:58:00.060Z,11.10
2022-10-10T11:01:55.241Z,9.50
2022-10-10T11:05:44.873Z,7.40
2022-10-10T11:09:44.936Z,8.90
2022-10-10T11:13:15.076Z,12.70
2022-10-10T11:16:49.098Z,15.10
2022-10-10T11:20:24.625Z,11.90
2022-10-10T11:23:58.957Z,13.00
2022-10-10T11:27:30.192Z,8.80
2022-10-10T11:31:03.111Z,8.60
2022-10-10T11:34:35.543Z,13.50
2022-10-10T11:38:12.958Z,14.30
2022-10-10T11:41:44.324Z,8.50
2022-10-10T11:45:18.555Z,9.50
2022-10-10T11:48:54.437Z,20.10
2022-10-10T11:52:33.968Z,10.00
2022-10-10T11:56:09.830Z,12.10
2022-10-10T11:59:43.876Z,11.20
2022-10-10T12:03:11.788Z,8.90
2022-10-10T12:06:43.580Z,9.80
2022-10-10T12:10:17.427Z,10.20
2022-10-10T12:17:22.398Z,9.50
2022-10-10T12:20:49.187Z,13.30
2022-10-10T12:24:16.963Z,11.10
2022-10-10T12:27:49.948Z,8.70
2022-10-10T12:31:33.850Z,12.60
2022-10-10T12:35:05.106Z,10.30
2022-10-10T12:38:31.839Z,10.50
2022-10-10T12:41:58.654Z,11.40
2022-10-10T12:45:58.721Z,7.70
2022-10-10T12:49:52.929Z,8.40
2022-10-10T12:53:23.431Z,10.70
2022-10-10T12:56:54.499Z,13.00
2022-10-10T13:00:24.484Z,15.40
2022-10-10T13:03:54.447Z,8.60
2022-10-10T13:07:26.417Z,10.60
2022-10-10T13:11:08.321Z,8.40
2022-10-10T13:14:43.754Z,9.10
2022-10-10T13:18:13.666Z,10.40
2022-10-10T13:21:41.014Z,10.80
2022-10-10T13:25:13.087Z,10.20
2022-10-10T13:28:40.089Z,11.00
2022-10-10T13:32:23.411Z,9.00
2022-10-10T13:36:10.350Z,11.00
2022-10-10T13:39:46.357Z,6.10
2022-10-10T13:43:21.041Z,8.40
2022-10-10T13:46:52.840Z,10.30
2022-10-10T13:50:30.133Z,7.40
2022-10-10T13:53:57.633Z,8.00
2022-10-10T13:57:29.114Z,10.80
2022-10-10T14:01:01.350Z,11.40
2022-10-10T14:04:34.495Z,12.10
2022-10-10T14:08:03.127Z,11.30
2022-10-10T14:11:35.194Z,10.60
2022-10-10T14:15:06.070Z,9.10
2022-10-10T14:18:37.499Z,6.90
2022-10-10T14:22:04.820Z,7.80
2022-10-10T14:25:35.701Z,11.50
2022-10-10T14:29:04.198Z,13.70
2022-10-10T14:32:33.577Z,8.00
2022-10-10T14:36:05.939Z,22.90
2022-10-10T14:39:33.344Z,14.40
2022-10-10T14:43:00.658Z,14.30
2022-10-10T14:46:27.497Z,9.80
2022-10-10T14:49:57.589Z,15.80
2022-10-10T14:53:25.282Z,9.90
2022-10-10T14:57:08.996Z,19.00
2022-10-10T15:00:37.243Z,15.90
2022-10-10T15:04:06.355Z,22.50
2022-10-10T15:07:34.189Z,23.40
2022-10-10T15:11:01.235Z,27.90
2022-10-10T15:14:28.052Z,24.40
2022-10-10T15:17:55.046Z,22.50
2022-10-10T15:21:23.308Z,28.00
2022-10-10T15:24:50.344Z,21.00
2022-10-10T15:28:17.594Z,19.70
2022-10-10T15:31:46.617Z,17.60
2022-10-10T15:35:18.277Z,19.10
2022-10-10T15:38:48.434Z,17.50
2022-10-10T15:42:22.393Z,14.50
2022-10-10T15:45:55.811Z,16.50
2022-10-10T15:49:39.711Z,18.40
2022-10-10T15:53:07.030Z,18.40
2022-10-10T15:56:34.298Z,20.40
2022-10-10T16:00:04.470Z,20.20
2022-10-10T16:03:39.532Z,22.80
2022-10-10T16:10:54.525Z,17.40
2022-10-10T16:14:22.426Z,16.30
2022-10-10T16:17:49.377Z,16.30
2022-10-10T16:21:21.283Z,15.80
2022-10-10T16:25:10.101Z,15.90
2022-10-10T16:28:36.736Z,14.90
2022-10-10T16:32:04.330Z,12.90
2022-10-10T16:35:32.353Z,16.10
2022-10-10T16:39:02.828Z,12.00
2022-10-10T16:42:33.583Z,15.90
2022-10-10T16:46:06.367Z,20.20
2022-10-10T16:49:34.060Z,12.00
2022-10-10T16:53:01.432Z,14.30
2022-10-10T16:56:30.627Z,16.40
2022-10-10T16:59:59.909Z,11.90
2022-10-10T17:03:28.005Z,12.20
2022-10-10T17:06:55.032Z,13.40
2022-10-10T17:10:26.092Z,13.40
2022-10-10T17:13:57.849Z,21.20
2022-10-10T17:17:26.068Z,17.70
2022-10-10T17:20:53.875Z,13.20
2022-10-10T17:24:22.036Z,10.50
2022-10-10T17:27:55.597Z,10.80
2022-10-10T17:31:22.883Z,9.70
2022-10-10T17:34:51.076Z,14.30
2022-10-10T17:38:38.369Z,17.20
2022-10-10T17:42:07.754Z,12.50
2022-10-10T17:45:38.529Z,9.10
2022-10-10T17:49:07.426Z,10.60
2022-10-10T17:52:41.659Z,13.30
2022-10-10T17:56:18.055Z,9.00
2022-10-10T17:59:45.183Z,16.80
2022-10-10T18:03:13.801Z,15.10
2022-10-10T18:06:41.506Z,10.50
2022-10-10T18:10:10.003Z,11.80
2022-10-10T18:13:37.883Z,11.00
2022-10-10T18:17:17.895Z,11.60
2022-10-10T18:20:45.599Z,9.60
2022-10-10T18:24:18.203Z,12.30
2022-10-10T18:27:45.548Z,12.80
2022-10-10T18:31:15.945Z,11.20
2022-10-10T18:34:46.466Z,12.10
2022-10-10T18:38:13.392Z,9.70
2022-10-10T18:41:40.888Z,11.20
2022-10-10T18:45:09.955Z,8.10
2022-10-10T18:48:39.089Z,13.30
2022-10-10T18:52:13.266Z,7.10
2022-10-10T18:55:42.101Z,5.70
2022-10-10T18:59:17.838Z,10.40
2022-10-10T19:02:50.763Z,9.80
2022-10-10T19:06:22.911Z,14.10
2022-10-10T19:09:53.649Z,11.30
2022-10-10T19:13:24.976Z,16.40
2022-10-10T19:16:52.740Z,8.20
2022-10-10T19:20:28.456Z,13.10
2022-10-10T19:23:57.766Z,9.70
2022-10-10T19:27:25.984Z,9.00
2022-10-10T19:30:55.566Z,10.20
2022-10-10T19:34:24.218Z,8.60
2022-10-10T19:37:52.859Z,9.70
2022-10-10T19:41:25.130Z,13.30
2022-10-10T19:44:53.293Z,10.30
2022-10-10T19:48:24.771Z,9.40
2022-10-10T19:51:55.389Z,14.60
2022-10-10T19:55:23.816Z,9.80
2022-10-10T19:58:58.572Z,10.30
2022-10-10T20:02:28.269Z,11.20
2022-10-10T20:06:01.741Z,13.20
2022-10-10T20:09:30.440Z,12.00
2022-10-10T20:12:58.434Z,17.90
2022-10-10T20:16:28.897Z,13.70
2022-10-10T20:19:56.460Z,14.70
2022-10-10T20:23:39.223Z,12.80
2022-10-10T20:30:47.467Z,14.70
2022-10-10T20:34:14.920Z,13.40
2022-10-10T20:37:45.485Z,13.00
2022-10-10T20:41:23.278Z,16.00
2022-10-10T20:44:55.771Z,15.60
2022-10-10T20:48:24.359Z,15.30
2022-10-10T20:51:54.369Z,11.10
2022-10-10T20:55:22.048Z,14.60
2022-10-10T20:58:53.761Z,18.10
2022-10-10T21:02:21.058Z,13.90
2022-10-10T21:06:02.607Z,12.00
2022-10-10T21:09:37.722Z,20.00
2022-10-10T21:13:05.708Z,16.40
2022-10-10T21:16:37.490Z,20.20
2022-10-10T21:20:05.949Z,15.60
2022-10-10T21:23:37.759Z,14.70
2022-10-10T21:27:08.902Z,18.00
2022-10-10T21:30:39.291Z,19.80
2022-10-10T21:34:11.341Z,18.10
2022-10-10T21:37:39.132Z,19.60
2022-10-10T21:41:11.004Z,23.00
2022-10-10T21:44:37.933Z,21.50
2022-10-10T21:48:05.441Z,19.40
2022-10-10T21:51:48.559Z,17.20
2022-10-10T21:58:42.919Z,21.80
2022-10-10T22:02:11.370Z,19.20
2022-10-10T22:05:42.624Z,17.90
2022-10-10T22:09:12.688Z,17.80
2022-10-10T22:12:40.070Z,16.10
2022-10-10T22:16:07.940Z,18.20
2022-10-10T22:19:35.633Z,18.70
2022-10-10T22:23:02.340Z,16.20
2022-10-10T22:26:29.220Z,17.80
2022-10-10T22:29:56.959Z,15.60
2022-10-10T22:33:26.522Z,20.00
2022-10-10T22:36:56.843Z,20.10
2022-10-10T22:40:23.995Z,20.00
2022-10-10T22:43:51.263Z,20.90
2022-10-10T22:47:18.236Z,21.00
2022-10-10T22:50:44.812Z,22.00
2022-10-10T22:54:12.300Z,24.70
2022-10-10T22:57:43.145Z,19.90
2022-10-10T23:01:12.705Z,26.60
2022-10-10T23:04:40.254Z,26.10
2022-10-10T23:08:07.199Z,26.70
2022-10-10T23:11:34.509Z,27.90
2022-10-10T23:15:03.008Z,25.20
2022-10-10T23:18:30.862Z,26.60
2022-10-10T23:21:58.775Z,23.90
2022-10-10T23:25:25.557Z,20.80
2022-10-10T23:28:54.501Z,23.60
2022-10-10T23:32:23.179Z,24.90
2022-10-10T23:36:00.141Z,19.30
2022-10-10T23:39:26.742Z,24.50
2022-10-10T23:42:55.608Z,27.00
2022-10-10T23:46:22.968Z,30.00
2022-10-10T23:49:49.864Z,23.20
2022-10-10T23:53:16.513Z,25.20
2022-10-10T23:56:42.801Z,26.00
